sensor_id;sensor_type;location;lat;lon;timestamp;temperature;humidity
18446;DHT22;9352;50.888;4.466;2023-09-12T00:00:08;21.30;99.90
18446;DHT22;9352;50.888;4.466;2023-09-12T00:02:37;21.30;99.90
18446;DHT22;9352;50.888;4.466;2023-09-12T00:05:06;21.30;99.90
18446;DHT22;9352;50.888;4.466;2023-09-12T00:07:33;21.30;99.90
18446;DHT22;9352;50.888;4.466;2023-09-12T00:10:00;21.30;99.90
18446;DHT22;9352;50.888;4.466;2023-09-12T00:12:27;21.30;99.90
18446;DHT22;9352;50.888;4.466;2023-09-12T00:14:54;21.30;99.90
18446;DHT22;9352;50.888;4.466;2023-09-12T00:17:21;21.30;99.90
18446;DHT22;9352;50.888;4.466;2023-09-12T00:19:48;21.30;99.90
18446;DHT22;9352;50.888;4.466;2023-09-12T00:22:16;21.30;99.90
18446;DHT22;9352;50.888;4.466;2023-09-12T00:24:43;21.30;99.90
18446;DHT22;9352;50.888;4.466;2023-09-12T00:27:10;21.30;99.90
18446;DHT22;9352;50.888;4.466;2023-09-12T00:29:36;21.30;99.90
18446;DHT22;9352;50.888;4.466;2023-09-12T00:32:04;21.30;99.90
18446;DHT22;9352;50.888;4.466;2023-09-12T00:34:31;21.30;99.90
18446;DHT22;9352;50.888;4.466;2023-09-12T00:36:58;21.30;99.90
18446;DHT22;9352;50.888;4.466;2023-09-12T00:39:26;21.30;99.90
18446;DHT22;9352;50.888;4.466;2023-09-12T00:41:53;21.30;99.90
18446;DHT22;9352;50.888;4.466;2023-09-12T00:44:20;21.30;99.90
18446;DHT22;9352;50.888;4.466;2023-09-12T00:46:49;21.30;99.90
18446;DHT22;9352;50.888;4.466;2023-09-12T00:49:16;21.30;99.90
18446;DHT22;9352;50.888;4.466;2023-09-12T00:51:45;21.30;99.90
18446;DHT22;9352;50.888;4.466;2023-09-12T00:54:12;21.30;99.90
18446;DHT22;9352;50.888;4.466;2023-09-12T00:56:40;21.30;99.90
18446;DHT22;9352;50.888;4.466;2023-09-12T00:59:08;21.20;99.90
18446;DHT22;9352;50.888;4.466;2023-09-12T01:01:36;21.20;99.90
18446;DHT22;9352;50.888;4.466;2023-09-12T01:04:04;21.10;99.90
18446;DHT22;9352;50.888;4.466;2023-09-12T01:06:32;21.10;99.90
18446;DHT22;9352;50.888;4.466;2023-09-12T01:09:00;21.00;99.90
18446;DHT22;9352;50.888;4.466;2023-09-12T01:11:27;21.00;99.90
18446;DHT22;9352;50.888;4.466;2023-09-12T01:13:56;20.90;99.90
18446;DHT22;9352;50.888;4.466;2023-09-12T01:16:23;20.90;99.90
18446;DHT22;9352;50.888;4.466;2023-09-12T01:18:50;20.90;99.90
18446;DHT22;9352;50.888;4.466;2023-09-12T01:21:43;20.80;99.90
18446;DHT22;9352;50.888;4.466;2023-09-12T01:24:40;20.70;99.90
18446;DHT22;9352;50.888;4.466;2023-09-12T01:27:27;20.70;99.90
18446;DHT22;9352;50.888;4.466;2023-09-12T01:29:57;20.70;99.90
18446;DHT22;9352;50.888;4.466;2023-09-12T01:32:24;20.60;99.90
18446;DHT22;9352;50.888;4.466;2023-09-12T01:34:51;20.60;99.90
18446;DHT22;9352;50.888;4.466;2023-09-12T01:37:18;20.50;99.90
18446;DHT22;9352;50.888;4.466;2023-09-12T01:39:45;20.50;99.90
18446;DHT22;9352;50.888;4.466;2023-09-12T01:42:15;20.50;99.90
18446;DHT22;9352;50.888;4.466;2023-09-12T01:44:45;20.40;99.90
18446;DHT22;9352;50.888;4.466;2023-09-12T01:47:13;20.50;99.90
18446;DHT22;9352;50.888;4.466;2023-09-12T01:49:44;20.40;99.90
18446;DHT22;9352;50.888;4.466;2023-09-12T01:52:12;20.40;99.90
18446;DHT22;9352;50.888;4.466;2023-09-12T01:54:40;20.40;99.90
18446;DHT22;9352;50.888;4.466;2023-09-12T01:57:08;20.40;99.90
18446;DHT22;9352;50.888;4.466;2023-09-12T01:59:35;20.40;99.90
18446;DHT22;9352;50.888;4.466;2023-09-12T02:02:03;20.40;99.90
18446;DHT22;9352;50.888;4.466;2023-09-12T02:04:30;20.40;99.90
18446;DHT22;9352;50.888;4.466;2023-09-12T02:06:57;20.40;99.90
18446;DHT22;9352;50.888;4.466;2023-09-12T02:09:24;20.40;99.90
18446;DHT22;9352;50.888;4.466;2023-09-12T02:11:52;20.40;99.90
18446;DHT22;9352;50.888;4.466;2023-09-12T02:14:19;20.30;99.90
18446;DHT22;9352;50.888;4.466;2023-09-12T02:16:46;20.40;99.90
18446;DHT22;9352;50.888;4.466;2023-09-12T02:19:14;20.40;99.90
18446;DHT22;9352;50.888;4.466;2023-09-12T02:21:41;20.40;99.90
18446;DHT22;9352;50.888;4.466;2023-09-12T02:24:08;20.50;99.90
18446;DHT22;9352;50.888;4.466;2023-09-12T02:26:35;20.60;99.90
18446;DHT22;9352;50.888;4.466;2023-09-12T02:29:03;20.60;99.90
18446;DHT22;9352;50.888;4.466;2023-09-12T02:31:31;20.60;99.90
18446;DHT22;9352;50.888;4.466;2023-09-12T02:33:58;20.60;99.90
18446;DHT22;9352;50.888;4.466;2023-09-12T02:36:28;20.60;99.90
18446;DHT22;9352;50.888;4.466;2023-09-12T02:38:55;20.70;99.90
18446;DHT22;9352;50.888;4.466;2023-09-12T02:41:21;20.70;99.90
18446;DHT22;9352;50.888;4.466;2023-09-12T02:43:49;20.70;99.90
18446;DHT22;9352;50.888;4.466;2023-09-12T02:46:16;20.70;99.90
18446;DHT22;9352;50.888;4.466;2023-09-12T02:48:42;20.70;99.90
18446;DHT22;9352;50.888;4.466;2023-09-12T02:51:09;20.70;99.90
18446;DHT22;9352;50.888;4.466;2023-09-12T02:53:37;20.70;99.90
18446;DHT22;9352;50.888;4.466;2023-09-12T02:56:04;20.70;99.90
18446;DHT22;9352;50.888;4.466;2023-09-12T02:58:31;20.60;99.90
18446;DHT22;9352;50.888;4.466;2023-09-12T03:00:58;20.70;99.90
18446;DHT22;9352;50.888;4.466;2023-09-12T03:03:26;20.70;99.90
18446;DHT22;9352;50.888;4.466;2023-09-12T03:05:59;20.70;99.90
18446;DHT22;9352;50.888;4.466;2023-09-12T03:08:27;20.70;99.90
18446;DHT22;9352;50.888;4.466;2023-09-12T03:10:56;20.60;99.90
18446;DHT22;9352;50.888;4.466;2023-09-12T03:13:24;20.60;99.90
18446;DHT22;9352;50.888;4.466;2023-09-12T03:15:51;20.70;99.90
18446;DHT22;9352;50.888;4.466;2023-09-12T03:18:18;20.60;99.90
18446;DHT22;9352;50.888;4.466;2023-09-12T03:20:45;20.60;99.90
18446;DHT22;9352;50.888;4.466;2023-09-12T03:23:12;20.60;99.90
18446;DHT22;9352;50.888;4.466;2023-09-12T03:25:39;20.60;99.90
18446;DHT22;9352;50.888;4.466;2023-09-12T03:28:07;20.70;99.90
18446;DHT22;9352;50.888;4.466;2023-09-12T03:30:36;20.70;99.90
18446;DHT22;9352;50.888;4.466;2023-09-12T03:33:04;20.70;99.90
18446;DHT22;9352;50.888;4.466;2023-09-12T03:35:32;20.70;99.90
18446;DHT22;9352;50.888;4.466;2023-09-12T03:37:59;20.70;99.90
18446;DHT22;9352;50.888;4.466;2023-09-12T03:40:28;20.70;99.90
18446;DHT22;9352;50.888;4.466;2023-09-12T03:42:56;20.70;99.90
18446;DHT22;9352;50.888;4.466;2023-09-12T03:45:24;20.70;99.90
18446;DHT22;9352;50.888;4.466;2023-09-12T03:47:51;20.80;99.90
18446;DHT22;9352;50.888;4.466;2023-09-12T03:50:18;20.80;99.90
18446;DHT22;9352;50.888;4.466;2023-09-12T03:52:45;20.80;99.90
18446;DHT22;9352;50.888;4.466;2023-09-12T03:55:12;20.80;99.90
18446;DHT22;9352;50.888;4.466;2023-09-12T03:57:39;20.80;99.90
18446;DHT22;9352;50.888;4.466;2023-09-12T04:00:07;20.80;99.90
18446;DHT22;9352;50.888;4.466;2023-09-12T04:02:35;20.80;99.90
18446;DHT22;9352;50.888;4.466;2023-09-12T04:05:03;20.80;99.90
18446;DHT22;9352;50.888;4.466;2023-09-12T04:07:30;20.80;99.90
18446;DHT22;9352;50.888;4.466;2023-09-12T04:09:56;20.80;99.90
18446;DHT22;9352;50.888;4.466;2023-09-12T04:12:23;20.80;99.90
18446;DHT22;9352;50.888;4.466;2023-09-12T04:14:52;20.80;99.90
18446;DHT22;9352;50.888;4.466;2023-09-12T04:17:20;20.80;99.90
18446;DHT22;9352;50.888;4.466;2023-09-12T04:19:48;20.80;99.90
18446;DHT22;9352;50.888;4.466;2023-09-12T04:22:15;20.80;99.90
18446;DHT22;9352;50.888;4.466;2023-09-12T04:24:42;20.80;99.90
18446;DHT22;9352;50.888;4.466;2023-09-12T04:27:09;20.70;99.90
18446;DHT22;9352;50.888;4.466;2023-09-12T04:29:36;20.70;99.90
18446;DHT22;9352;50.888;4.466;2023-09-12T04:32:03;20.80;99.90
18446;DHT22;9352;50.888;4.466;2023-09-12T04:34:31;20.80;99.90
18446;DHT22;9352;50.888;4.466;2023-09-12T04:36:59;20.80;99.90
18446;DHT22;9352;50.888;4.466;2023-09-12T04:39:28;20.70;99.90
18446;DHT22;9352;50.888;4.466;2023-09-12T04:41:56;20.80;99.90
18446;DHT22;9352;50.888;4.466;2023-09-12T04:44:23;20.70;99.90
18446;DHT22;9352;50.888;4.466;2023-09-12T04:46:50;20.70;99.90
18446;DHT22;9352;50.888;4.466;2023-09-12T04:49:17;20.70;99.90
18446;DHT22;9352;50.888;4.466;2023-09-12T04:51:44;20.70;99.90
18446;DHT22;9352;50.888;4.466;2023-09-12T04:54:12;20.70;99.90
18446;DHT22;9352;50.888;4.466;2023-09-12T04:56:39;20.70;99.90
18446;DHT22;9352;50.888;4.466;2023-09-12T04:59:05;20.70;99.90
18446;DHT22;9352;50.888;4.466;2023-09-12T05:01:33;20.70;99.90
18446;DHT22;9352;50.888;4.466;2023-09-12T05:04:00;20.70;99.90
18446;DHT22;9352;50.888;4.466;2023-09-12T05:06:26;20.60;99.90
18446;DHT22;9352;50.888;4.466;2023-09-12T05:08:53;20.60;99.90
18446;DHT22;9352;50.888;4.466;2023-09-12T05:11:22;20.60;99.90
18446;DHT22;9352;50.888;4.466;2023-09-12T05:13:49;20.60;99.90
18446;DHT22;9352;50.888;4.466;2023-09-12T05:16:16;20.50;99.90
18446;DHT22;9352;50.888;4.466;2023-09-12T05:18:43;20.50;99.90
18446;DHT22;9352;50.888;4.466;2023-09-12T05:21:10;20.50;99.90
18446;DHT22;9352;50.888;4.466;2023-09-12T05:23:37;20.40;99.90
18446;DHT22;9352;50.888;4.466;2023-09-12T05:26:04;20.40;99.90
18446;DHT22;9352;50.888;4.466;2023-09-12T05:28:34;20.40;99.90
18446;DHT22;9352;50.888;4.466;2023-09-12T05:31:01;20.40;99.90
18446;DHT22;9352;50.888;4.466;2023-09-12T05:33:28;20.40;99.90
18446;DHT22;9352;50.888;4.466;2023-09-12T05:35:55;20.40;99.90
18446;DHT22;9352;50.888;4.466;2023-09-12T05:38:22;20.30;99.90
18446;DHT22;9352;50.888;4.466;2023-09-12T05:40:49;20.30;99.90
18446;DHT22;9352;50.888;4.466;2023-09-12T05:43:16;20.20;99.90
18446;DHT22;9352;50.888;4.466;2023-09-12T05:45:44;20.20;99.90
18446;DHT22;9352;50.888;4.466;2023-09-12T05:48:11;20.20;99.90
18446;DHT22;9352;50.888;4.466;2023-09-12T05:50:38;20.20;99.90
18446;DHT22;9352;50.888;4.466;2023-09-12T05:53:05;20.20;99.90
18446;DHT22;9352;50.888;4.466;2023-09-12T05:55:32;20.20;99.90
18446;DHT22;9352;50.888;4.466;2023-09-12T05:57:59;20.20;99.90
18446;DHT22;9352;50.888;4.466;2023-09-12T06:00:26;20.20;99.90
18446;DHT22;9352;50.888;4.466;2023-09-12T06:02:55;20.20;99.90
18446;DHT22;9352;50.888;4.466;2023-09-12T06:05:22;20.20;99.90
18446;DHT22;9352;50.888;4.466;2023-09-12T06:07:49;20.20;99.90
18446;DHT22;9352;50.888;4.466;2023-09-12T06:10:16;20.30;99.90
18446;DHT22;9352;50.888;4.466;2023-09-12T06:12:43;20.30;99.90
18446;DHT22;9352;50.888;4.466;2023-09-12T06:15:10;20.30;99.90
18446;DHT22;9352;50.888;4.466;2023-09-12T06:17:37;20.40;99.90
18446;DHT22;9352;50.888;4.466;2023-09-12T06:20:06;20.50;99.90
18446;DHT22;9352;50.888;4.466;2023-09-12T06:22:33;20.50;99.90
18446;DHT22;9352;50.888;4.466;2023-09-12T06:25:01;20.60;99.90
18446;DHT22;9352;50.888;4.466;2023-09-12T06:27:28;20.60;99.90
18446;DHT22;9352;50.888;4.466;2023-09-12T06:29:57;20.70;99.90
18446;DHT22;9352;50.888;4.466;2023-09-12T06:32:24;20.70;99.90
18446;DHT22;9352;50.888;4.466;2023-09-12T06:34:50;20.70;99.90
18446;DHT22;9352;50.888;4.466;2023-09-12T06:37:19;20.80;99.90
18446;DHT22;9352;50.888;4.466;2023-09-12T06:39:49;21.00;99.90
18446;DHT22;9352;50.888;4.466;2023-09-12T06:42:16;21.10;99.90
18446;DHT22;9352;50.888;4.466;2023-09-12T06:44:43;21.10;99.90
18446;DHT22;9352;50.888;4.466;2023-09-12T06:47:10;21.00;99.90
18446;DHT22;9352;50.888;4.466;2023-09-12T06:49:37;20.90;99.90
18446;DHT22;9352;50.888;4.466;2023-09-12T06:52:05;21.10;99.90
18446;DHT22;9352;50.888;4.466;2023-09-12T06:54:35;21.30;99.90
18446;DHT22;9352;50.888;4.466;2023-09-12T06:57:02;21.50;99.90
18446;DHT22;9352;50.888;4.466;2023-09-12T06:59:29;21.70;99.90
18446;DHT22;9352;50.888;4.466;2023-09-12T07:01:56;21.90;99.90
18446;DHT22;9352;50.888;4.466;2023-09-12T07:04:23;22.00;99.90
18446;DHT22;9352;50.888;4.466;2023-09-12T07:06:51;22.10;99.90
18446;DHT22;9352;50.888;4.466;2023-09-12T07:09:18;22.20;99.90
18446;DHT22;9352;50.888;4.466;2023-09-12T07:11:47;22.30;99.90
18446;DHT22;9352;50.888;4.466;2023-09-12T07:14:14;22.40;99.90
18446;DHT22;9352;50.888;4.466;2023-09-12T07:16:41;22.30;99.90
18446;DHT22;9352;50.888;4.466;2023-09-12T07:19:08;22.30;99.90
18446;DHT22;9352;50.888;4.466;2023-09-12T07:21:35;22.30;99.90
18446;DHT22;9352;50.888;4.466;2023-09-12T07:24:02;22.20;99.90
18446;DHT22;9352;50.888;4.466;2023-09-12T07:26:29;22.20;99.90
18446;DHT22;9352;50.888;4.466;2023-09-12T07:28:58;22.20;99.90
18446;DHT22;9352;50.888;4.466;2023-09-12T07:31:28;22.30;99.90
18446;DHT22;9352;50.888;4.466;2023-09-12T07:33:55;22.40;99.90
18446;DHT22;9352;50.888;4.466;2023-09-12T07:36:22;22.50;99.90
18446;DHT22;9352;50.888;4.466;2023-09-12T07:38:49;22.70;99.90
18446;DHT22;9352;50.888;4.466;2023-09-12T07:41:16;22.90;99.90
18446;DHT22;9352;50.888;4.466;2023-09-12T07:43:44;23.10;99.90
18446;DHT22;9352;50.888;4.466;2023-09-12T07:46:12;23.20;99.90
18446;DHT22;9352;50.888;4.466;2023-09-12T07:48:39;23.00;99.90
18446;DHT22;9352;50.888;4.466;2023-09-12T07:51:13;23.00;99.90
18446;DHT22;9352;50.888;4.466;2023-09-12T07:53:40;23.10;99.90
18446;DHT22;9352;50.888;4.466;2023-09-12T07:56:08;23.00;99.90
18446;DHT22;9352;50.888;4.466;2023-09-12T07:58:36;23.00;99.90
18446;DHT22;9352;50.888;4.466;2023-09-12T08:01:06;23.20;99.90
18446;DHT22;9352;50.888;4.466;2023-09-12T08:03:35;23.20;99.90
18446;DHT22;9352;50.888;4.466;2023-09-12T08:06:04;23.30;99.90
18446;DHT22;9352;50.888;4.466;2023-09-12T08:08:32;23.00;99.90
18446;DHT22;9352;50.888;4.466;2023-09-12T08:10:59;23.10;99.90
18446;DHT22;9352;50.888;4.466;2023-09-12T08:13:27;23.20;99.90
18446;DHT22;9352;50.888;4.466;2023-09-12T08:15:54;23.30;99.90
18446;DHT22;9352;50.888;4.466;2023-09-12T08:18:21;23.40;99.90
18446;DHT22;9352;50.888;4.466;2023-09-12T08:20:50;23.60;99.90
18446;DHT22;9352;50.888;4.466;2023-09-12T08:23:16;23.80;99.90
18446;DHT22;9352;50.888;4.466;2023-09-12T08:25:43;23.70;99.90
18446;DHT22;9352;50.888;4.466;2023-09-12T08:28:10;23.80;99.90
18446;DHT22;9352;50.888;4.466;2023-09-12T08:30:37;23.80;99.90
18446;DHT22;9352;50.888;4.466;2023-09-12T08:33:04;23.70;99.90
18446;DHT22;9352;50.888;4.466;2023-09-12T08:35:32;23.70;99.90
18446;DHT22;9352;50.888;4.466;2023-09-12T08:38:00;23.70;99.90
18446;DHT22;9352;50.888;4.466;2023-09-12T08:40:27;23.60;99.90
18446;DHT22;9352;50.888;4.466;2023-09-12T08:42:58;23.70;99.90
18446;DHT22;9352;50.888;4.466;2023-09-12T08:45:25;23.80;99.90
18446;DHT22;9352;50.888;4.466;2023-09-12T08:47:53;23.60;99.90
18446;DHT22;9352;50.888;4.466;2023-09-12T08:50:21;23.40;99.90
18446;DHT22;9352;50.888;4.466;2023-09-12T08:52:49;23.60;99.90
18446;DHT22;9352;50.888;4.466;2023-09-12T08:55:17;23.80;99.90
18446;DHT22;9352;50.888;4.466;2023-09-12T08:57:48;23.70;99.90
18446;DHT22;9352;50.888;4.466;2023-09-12T09:00:16;24.10;99.90
18446;DHT22;9352;50.888;4.466;2023-09-12T09:02:44;24.40;99.90
18446;DHT22;9352;50.888;4.466;2023-09-12T09:05:12;24.60;99.90
18446;DHT22;9352;50.888;4.466;2023-09-12T09:07:41;25.30;99.90
18446;DHT22;9352;50.888;4.466;2023-09-12T09:10:14;26.00;99.90
18446;DHT22;9352;50.888;4.466;2023-09-12T09:12:43;26.70;99.90
18446;DHT22;9352;50.888;4.466;2023-09-12T09:15:21;27.20;99.90
18446;DHT22;9352;50.888;4.466;2023-09-12T09:17:49;27.00;99.90
18446;DHT22;9352;50.888;4.466;2023-09-12T09:20:25;27.50;99.90
18446;DHT22;9352;50.888;4.466;2023-09-12T09:22:57;27.20;99.90
18446;DHT22;9352;50.888;4.466;2023-09-12T09:25:24;27.60;99.90
18446;DHT22;9352;50.888;4.466;2023-09-12T09:27:53;28.20;99.90
18446;DHT22;9352;50.888;4.466;2023-09-12T09:30:39;28.60;99.90
18446;DHT22;9352;50.888;4.466;2023-09-12T09:33:06;28.50;99.90
18446;DHT22;9352;50.888;4.466;2023-09-12T09:35:34;28.40;99.90
18446;DHT22;9352;50.888;4.466;2023-09-12T09:38:01;28.90;99.90
18446;DHT22;9352;50.888;4.466;2023-09-12T09:40:29;29.60;99.90
18446;DHT22;9352;50.888;4.466;2023-09-12T09:42:59;30.10;99.90
18446;DHT22;9352;50.888;4.466;2023-09-12T09:45:26;30.40;99.90
18446;DHT22;9352;50.888;4.466;2023-09-12T09:47:57;30.10;99.90
18446;DHT22;9352;50.888;4.466;2023-09-12T09:50:24;30.10;99.90
18446;DHT22;9352;50.888;4.466;2023-09-12T09:52:54;30.00;99.90
18446;DHT22;9352;50.888;4.466;2023-09-12T09:55:21;29.60;99.90
18446;DHT22;9352;50.888;4.466;2023-09-12T09:57:49;29.50;99.90
18446;DHT22;9352;50.888;4.466;2023-09-12T10:00:20;29.20;99.90
18446;DHT22;9352;50.888;4.466;2023-09-12T10:02:50;28.90;99.90
18446;DHT22;9352;50.888;4.466;2023-09-12T10:05:17;28.70;99.90
18446;DHT22;9352;50.888;4.466;2023-09-12T10:07:48;29.50;99.90
18446;DHT22;9352;50.888;4.466;2023-09-12T10:10:17;30.20;99.90
18446;DHT22;9352;50.888;4.466;2023-09-12T10:12:49;30.50;99.90
18446;DHT22;9352;50.888;4.466;2023-09-12T10:15:19;30.20;99.90
18446;DHT22;9352;50.888;4.466;2023-09-12T10:17:52;30.60;99.90
18446;DHT22;9352;50.888;4.466;2023-09-12T10:20:25;30.40;99.90
18446;DHT22;9352;50.888;4.466;2023-09-12T10:23:02;30.70;99.90
18446;DHT22;9352;50.888;4.466;2023-09-12T10:25:34;31.10;99.90
18446;DHT22;9352;50.888;4.466;2023-09-12T10:28:03;30.90;99.90
18446;DHT22;9352;50.888;4.466;2023-09-12T10:30:32;30.60;99.90
18446;DHT22;9352;50.888;4.466;2023-09-12T10:33:01;29.90;99.90
18446;DHT22;9352;50.888;4.466;2023-09-12T10:35:30;29.80;99.90
18446;DHT22;9352;50.888;4.466;2023-09-12T10:37:59;30.00;99.90
18446;DHT22;9352;50.888;4.466;2023-09-12T10:40:28;30.20;99.90
18446;DHT22;9352;50.888;4.466;2023-09-12T10:42:55;30.60;99.90
18446;DHT22;9352;50.888;4.466;2023-09-12T10:45:23;30.70;99.90
18446;DHT22;9352;50.888;4.466;2023-09-12T10:47:51;31.20;99.90
18446;DHT22;9352;50.888;4.466;2023-09-12T10:50:20;31.20;99.90
18446;DHT22;9352;50.888;4.466;2023-09-12T10:52:47;31.00;99.90
18446;DHT22;9352;50.888;4.466;2023-09-12T10:55:16;31.00;99.90
18446;DHT22;9352;50.888;4.466;2023-09-12T10:58:03;30.60;99.90
18446;DHT22;9352;50.888;4.466;2023-09-12T11:00:31;29.40;99.90
18446;DHT22;9352;50.888;4.466;2023-09-12T11:03:00;29.50;99.90
18446;DHT22;9352;50.888;4.466;2023-09-12T11:05:54;29.50;99.90
18446;DHT22;9352;50.888;4.466;2023-09-12T11:08:21;30.80;99.90
18446;DHT22;9352;50.888;4.466;2023-09-12T11:11:17;31.10;99.90
18446;DHT22;9352;50.888;4.466;2023-09-12T11:13:46;32.20;99.90
18446;DHT22;9352;50.888;4.466;2023-09-12T11:16:14;32.40;99.90
18446;DHT22;9352;50.888;4.466;2023-09-12T11:19:16;31.30;99.90
18446;DHT22;9352;50.888;4.466;2023-09-12T11:21:44;30.40;99.90
18446;DHT22;9352;50.888;4.466;2023-09-12T11:24:12;30.30;99.90
18446;DHT22;9352;50.888;4.466;2023-09-12T11:26:53;31.10;99.90
18446;DHT22;9352;50.888;4.466;2023-09-12T11:29:20;30.70;99.90
18446;DHT22;9352;50.888;4.466;2023-09-12T11:31:56;30.20;99.90
18446;DHT22;9352;50.888;4.466;2023-09-12T11:34:30;30.80;99.90
18446;DHT22;9352;50.888;4.466;2023-09-12T11:37:00;31.20;99.90
18446;DHT22;9352;50.888;4.466;2023-09-12T11:39:29;31.40;99.90
18446;DHT22;9352;50.888;4.466;2023-09-12T11:41:58;31.10;99.90
18446;DHT22;9352;50.888;4.466;2023-09-12T11:44:25;31.20;99.90
18446;DHT22;9352;50.888;4.466;2023-09-12T11:46:53;31.10;99.90
18446;DHT22;9352;50.888;4.466;2023-09-12T11:49:20;32.60;99.90
18446;DHT22;9352;50.888;4.466;2023-09-12T11:51:50;33.20;99.90
18446;DHT22;9352;50.888;4.466;2023-09-12T11:54:18;33.60;99.90
18446;DHT22;9352;50.888;4.466;2023-09-12T11:56:47;33.90;99.90
18446;DHT22;9352;50.888;4.466;2023-09-12T11:59:14;33.50;99.90
18446;DHT22;9352;50.888;4.466;2023-09-12T12:01:44;33.90;99.90
18446;DHT22;9352;50.888;4.466;2023-09-12T12:04:11;33.80;99.90
18446;DHT22;9352;50.888;4.466;2023-09-12T12:06:38;33.00;99.90
18446;DHT22;9352;50.888;4.466;2023-09-12T12:09:10;32.70;99.90
18446;DHT22;9352;50.888;4.466;2023-09-12T12:11:39;32.70;99.90
18446;DHT22;9352;50.888;4.466;2023-09-12T12:14:11;33.40;99.90
18446;DHT22;9352;50.888;4.466;2023-09-12T12:16:39;34.00;99.90
18446;DHT22;9352;50.888;4.466;2023-09-12T12:19:06;34.80;99.90
18446;DHT22;9352;50.888;4.466;2023-09-12T12:21:33;34.10;99.90
18446;DHT22;9352;50.888;4.466;2023-09-12T12:24:00;33.70;99.90
18446;DHT22;9352;50.888;4.466;2023-09-12T12:26:30;32.80;99.90
18446;DHT22;9352;50.888;4.466;2023-09-12T12:28:59;32.20;99.90
18446;DHT22;9352;50.888;4.466;2023-09-12T12:31:26;32.60;99.90
18446;DHT22;9352;50.888;4.466;2023-09-12T12:33:54;33.70;99.90
18446;DHT22;9352;50.888;4.466;2023-09-12T12:36:21;34.40;99.90
18446;DHT22;9352;50.888;4.466;2023-09-12T12:38:49;35.70;99.90
18446;DHT22;9352;50.888;4.466;2023-09-12T12:41:22;35.80;99.90
18446;DHT22;9352;50.888;4.466;2023-09-12T12:43:52;36.60;99.90
18446;DHT22;9352;50.888;4.466;2023-09-12T12:46:21;35.20;99.90
18446;DHT22;9352;50.888;4.466;2023-09-12T12:52:17;33.50;99.90
18446;DHT22;9352;50.888;4.466;2023-09-12T12:54:48;32.30;99.90
18446;DHT22;9352;50.888;4.466;2023-09-12T12:57:19;31.70;99.90
18446;DHT22;9352;50.888;4.466;2023-09-12T12:59:50;30.90;99.90
18446;DHT22;9352;50.888;4.466;2023-09-12T13:02:17;30.50;99.90
18446;DHT22;9352;50.888;4.466;2023-09-12T13:04:45;30.00;99.90
18446;DHT22;9352;50.888;4.466;2023-09-12T13:07:11;29.60;99.90
18446;DHT22;9352;50.888;4.466;2023-09-12T13:09:38;29.10;99.90
18446;DHT22;9352;50.888;4.466;2023-09-12T13:12:06;28.70;99.90
18446;DHT22;9352;50.888;4.466;2023-09-12T13:14:34;28.90;99.90
18446;DHT22;9352;50.888;4.466;2023-09-12T13:17:02;28.60;99.90
18446;DHT22;9352;50.888;4.466;2023-09-12T13:19:29;28.00;99.90
18446;DHT22;9352;50.888;4.466;2023-09-12T13:21:56;27.80;99.90
18446;DHT22;9352;50.888;4.466;2023-09-12T13:24:23;27.90;99.90
18446;DHT22;9352;50.888;4.466;2023-09-12T13:26:50;27.70;99.90
18446;DHT22;9352;50.888;4.466;2023-09-12T13:29:17;27.30;99.90
18446;DHT22;9352;50.888;4.466;2023-09-12T13:31:44;27.10;99.90
18446;DHT22;9352;50.888;4.466;2023-09-12T13:34:12;27.20;99.90
18446;DHT22;9352;50.888;4.466;2023-09-12T13:36:52;27.20;99.90
18446;DHT22;9352;50.888;4.466;2023-09-12T13:39:23;27.10;99.90
18446;DHT22;9352;50.888;4.466;2023-09-12T13:41:50;26.90;99.90
18446;DHT22;9352;50.888;4.466;2023-09-12T13:44:17;26.60;99.90
18446;DHT22;9352;50.888;4.466;2023-09-12T13:46:44;26.70;99.90
18446;DHT22;9352;50.888;4.466;2023-09-12T13:49:14;26.90;99.90
18446;DHT22;9352;50.888;4.466;2023-09-12T13:51:41;26.70;99.90
18446;DHT22;9352;50.888;4.466;2023-09-12T13:54:08;26.80;99.90
18446;DHT22;9352;50.888;4.466;2023-09-12T13:56:40;26.80;99.90
18446;DHT22;9352;50.888;4.466;2023-09-12T13:59:07;26.70;99.90
18446;DHT22;9352;50.888;4.466;2023-09-12T14:01:35;26.70;99.90
18446;DHT22;9352;50.888;4.466;2023-09-12T14:04:03;26.80;99.90
18446;DHT22;9352;50.888;4.466;2023-09-12T14:06:33;26.80;99.90
18446;DHT22;9352;50.888;4.466;2023-09-12T14:09:02;26.60;99.90
18446;DHT22;9352;50.888;4.466;2023-09-12T14:11:30;26.70;99.90
18446;DHT22;9352;50.888;4.466;2023-09-12T14:13:58;26.50;99.90
18446;DHT22;9352;50.888;4.466;2023-09-12T14:16:26;26.50;99.90
18446;DHT22;9352;50.888;4.466;2023-09-12T14:18:53;26.40;99.90
18446;DHT22;9352;50.888;4.466;2023-09-12T14:21:21;26.30;99.90
18446;DHT22;9352;50.888;4.466;2023-09-12T14:23:53;26.20;99.90
18446;DHT22;9352;50.888;4.466;2023-09-12T14:26:21;26.10;99.90
18446;DHT22;9352;50.888;4.466;2023-09-12T14:28:52;26.00;99.90
18446;DHT22;9352;50.888;4.466;2023-09-12T14:31:27;26.00;99.90
18446;DHT22;9352;50.888;4.466;2023-09-12T14:33:55;25.80;99.90
18446;DHT22;9352;50.888;4.466;2023-09-12T14:36:24;25.60;99.90
18446;DHT22;9352;50.888;4.466;2023-09-12T14:42:23;25.40;99.90
18446;DHT22;9352;50.888;4.466;2023-09-12T14:44:50;25.40;99.90
18446;DHT22;9352;50.888;4.466;2023-09-12T14:47:18;25.50;99.90
18446;DHT22;9352;50.888;4.466;2023-09-12T14:49:45;25.50;99.90
18446;DHT22;9352;50.888;4.466;2023-09-12T14:52:12;25.50;99.90
18446;DHT22;9352;50.888;4.466;2023-09-12T14:54:42;25.40;99.90
18446;DHT22;9352;50.888;4.466;2023-09-12T14:57:09;25.30;99.90
18446;DHT22;9352;50.888;4.466;2023-09-12T14:59:40;25.20;99.90
18446;DHT22;9352;50.888;4.466;2023-09-12T15:02:09;25.40;99.90
18446;DHT22;9352;50.888;4.466;2023-09-12T15:04:53;25.40;99.90
18446;DHT22;9352;50.888;4.466;2023-09-12T15:07:33;25.50;99.90
18446;DHT22;9352;50.888;4.466;2023-09-12T15:10:03;25.40;99.90
18446;DHT22;9352;50.888;4.466;2023-09-12T15:12:53;25.50;99.90
18446;DHT22;9352;50.888;4.466;2023-09-12T15:15:49;25.50;99.90
18446;DHT22;9352;50.888;4.466;2023-09-12T15:18:42;25.40;99.90
18446;DHT22;9352;50.888;4.466;2023-09-12T15:21:09;25.10;99.90
18446;DHT22;9352;50.888;4.466;2023-09-12T15:37:08;25.00;99.90
18446;DHT22;9352;50.888;4.466;2023-09-12T15:39:35;24.90;99.90
18446;DHT22;9352;50.888;4.466;2023-09-12T15:42:02;24.80;99.90
18446;DHT22;9352;50.888;4.466;2023-09-12T15:44:29;24.80;99.90
18446;DHT22;9352;50.888;4.466;2023-09-12T15:46:56;24.70;99.90
18446;DHT22;9352;50.888;4.466;2023-09-12T15:49:26;24.60;99.90
18446;DHT22;9352;50.888;4.466;2023-09-12T15:51:54;24.50;99.90
18446;DHT22;9352;50.888;4.466;2023-09-12T15:54:22;24.40;99.90
18446;DHT22;9352;50.888;4.466;2023-09-12T15:56:49;24.30;99.90
18446;DHT22;9352;50.888;4.466;2023-09-12T15:59:16;24.20;99.90
18446;DHT22;9352;50.888;4.466;2023-09-12T16:01:44;24.10;99.90
18446;DHT22;9352;50.888;4.466;2023-09-12T16:04:17;24.20;99.90
18446;DHT22;9352;50.888;4.466;2023-09-12T16:06:55;24.30;99.90
18446;DHT22;9352;50.888;4.466;2023-09-12T16:09:23;24.20;99.90
18446;DHT22;9352;50.888;4.466;2023-09-12T16:11:50;24.10;99.90
18446;DHT22;9352;50.888;4.466;2023-09-12T16:14:18;24.10;99.90